createdAt,value
2018-05-08T00:02:24.659Z,41.36
2018-05-08T00:04:56.638Z,41.12
2018-05-08T00:07:25.035Z,41.30
2018-05-08T00:09:53.517Z,41.29
2018-05-08T00:12:25.562Z,41.63
2018-05-08T00:14:58.060Z,41.55
2018-05-08T00:17:26.500Z,41.80
2018-05-08T00:19:55.040Z,41.87
2018-05-08T00:22:25.517Z,41.65
2018-05-08T00:24:55.672Z,41.87
2018-05-08T00:27:24.091Z,41.90
2018-05-08T00:29:52.530Z,41.75
2018-05-08T00:32:20.950Z,42.42
2018-05-08T00:34:49.376Z,42.64
2018-05-08T00:37:21.527Z,42.51
2018-05-08T00:39:53.946Z,42.69
2018-05-08T00:42:22.319Z,43.03
2018-05-08T00:44:50.683Z,43.36
2018-05-08T00:47:23.226Z,43.29
2018-05-08T00:49:53.403Z,43.54
2018-05-08T00:52:21.836Z,43.75
2018-05-08T00:54:56.499Z,43.95
2018-05-08T00:57:24.996Z,44.20
2018-05-08T00:59:53.372Z,44.48
2018-05-08T01:02:21.775Z,44.40
2018-05-08T01:04:50.126Z,44.58
2018-05-08T01:07:18.626Z,44.43
2018-05-08T01:09:47.004Z,44.37
2018-05-08T01:12:17.405Z,44.60
2018-05-08T01:14:45.858Z,44.59
2018-05-08T01:17:14.293Z,44.66
2018-05-08T01:19:42.893Z,44.76
2018-05-08T01:22:11.306Z,45.05
2018-05-08T01:24:41.323Z,44.92
2018-05-08T01:27:11.855Z,45.15
2018-05-08T01:29:40.263Z,45.32
2018-05-08T01:32:08.708Z,45.58
2018-05-08T01:34:37.111Z,45.83
2018-05-08T01:37:05.515Z,46.06
2018-05-08T01:39:33.973Z,46.03
2018-05-08T01:42:03.922Z,46.13
2018-05-08T01:44:32.348Z,46.24
2018-05-08T01:47:00.839Z,46.73
2018-05-08T01:49:31.335Z,46.79
2018-05-08T01:51:59.785Z,46.68
2018-05-08T01:54:32.390Z,46.59
2018-05-08T01:57:00.805Z,46.66
2018-05-08T01:59:29.292Z,47.20
2018-05-08T02:01:57.650Z,47.20
2018-05-08T02:04:26.077Z,47.06
2018-05-08T02:06:55.940Z,47.36
2018-05-08T02:09:24.433Z,47.56
2018-05-08T02:11:52.824Z,47.77
2018-05-08T02:14:21.266Z,47.77
2018-05-08T02:16:51.731Z,47.63
2018-05-08T02:19:20.190Z,48.15
2018-05-08T02:21:48.576Z,48.04
2018-05-08T02:24:16.987Z,48.00
2018-05-08T02:26:47.387Z,47.90
2018-05-08T02:29:18.794Z,48.00
2018-05-08T02:31:47.231Z,48.22
2018-05-08T02:34:15.627Z,47.89
2018-05-08T02:36:44.147Z,48.18
2018-05-08T02:39:12.557Z,47.85
2018-05-08T02:41:40.965Z,47.70
2018-05-08T02:44:09.401Z,48.03
2018-05-08T02:46:37.836Z,47.95
2018-05-08T02:49:06.275Z,47.83
2018-05-08T02:51:34.701Z,47.99
2018-05-08T02:54:03.124Z,47.87
2018-05-08T02:56:31.560Z,47.83
2018-05-08T02:58:59.924Z,47.77
2018-05-08T03:01:28.367Z,47.87
2018-05-08T03:03:56.758Z,47.48
2018-05-08T03:06:25.179Z,47.72
2018-05-08T03:08:53.633Z,47.82
2018-05-08T03:11:22.287Z,47.75
2018-05-08T03:13:50.689Z,47.52
2018-05-08T03:16:19.143Z,47.31
2018-05-08T03:18:49.532Z,47.44
2018-05-08T03:21:19.936Z,47.49
2018-05-08T03:23:48.326Z,47.32
2018-05-08T03:26:16.736Z,47.61
2018-05-08T03:28:45.144Z,47.71
2018-05-08T03:31:13.567Z,47.90
2018-05-08T03:33:41.986Z,48.27
2018-05-08T03:36:12.447Z,48.15
2018-05-08T03:38:40.828Z,47.72
2018-05-08T03:41:12.796Z,48.08
2018-05-08T03:43:41.215Z,48.32
2018-05-08T03:46:09.635Z,48.46
2018-05-08T03:48:38.048Z,49.35
2018-05-08T03:51:06.540Z,49.70
2018-05-08T03:53:35.025Z,49.62
2018-05-08T03:56:03.433Z,49.53
2018-05-08T03:58:33.430Z,49.42
2018-05-08T04:01:07.856Z,49.51
2018-05-08T04:03:42.251Z,49.46
2018-05-08T04:06:11.643Z,50.45
2018-05-08T04:08:40.047Z,51.07
2018-05-08T04:11:08.460Z,51.27
2018-05-08T04:13:36.888Z,51.31
2018-05-08T04:16:05.363Z,51.08
2018-05-08T04:18:33.888Z,50.89
2018-05-08T04:21:02.389Z,50.72
2018-05-08T04:23:30.743Z,50.16
2018-05-08T04:25:59.151Z,49.70
2018-05-08T04:28:27.592Z,49.08
2018-05-08T04:30:59.724Z,49.22
2018-05-08T04:33:29.884Z,49.32
2018-05-08T04:36:02.052Z,49.21
2018-05-08T04:38:32.765Z,49.10
2018-05-08T04:41:01.168Z,48.56
2018-05-08T04:43:29.572Z,48.37
2018-05-08T04:45:57.991Z,47.94
2018-05-08T04:48:26.411Z,47.48
2018-05-08T04:50:56.538Z,47.55
2018-05-08T04:53:25.035Z,47.26
2018-05-08T04:55:53.462Z,47.20
2018-05-08T04:58:23.824Z,47.22
2018-05-08T05:00:53.619Z,46.71
2018-05-08T05:03:22.024Z,46.95
2018-05-08T05:05:50.437Z,46.78
2018-05-08T05:08:18.911Z,46.75
2018-05-08T05:10:48.847Z,46.62
2018-05-08T05:13:18.644Z,46.26
2018-05-08T05:15:47.011Z,46.41
2018-05-08T05:18:17.003Z,46.24
2018-05-08T05:20:46.383Z,45.79
2018-05-08T05:23:14.826Z,45.51
2018-05-08T05:25:43.247Z,45.21
2018-05-08T05:28:13.096Z,44.91
2018-05-08T05:30:41.623Z,44.60
2018-05-08T05:33:09.973Z,44.64
2018-05-08T05:35:39.435Z,44.45
2018-05-08T05:38:07.848Z,44.29
2018-05-08T05:40:36.296Z,43.69
2018-05-08T05:43:05.682Z,43.30
2018-05-08T05:45:35.145Z,42.17
2018-05-08T05:48:03.929Z,42.07
2018-05-08T05:50:32.367Z,41.42
2018-05-08T05:53:01.806Z,40.52
2018-05-08T05:55:30.198Z,40.45
2018-05-08T05:57:58.972Z,40.37
2018-05-08T06:00:27.264Z,38.95
2018-05-08T06:02:55.701Z,38.79
2018-05-08T06:05:24.168Z,38.12
2018-05-08T06:07:52.621Z,37.89
2018-05-08T06:10:22.056Z,37.52
2018-05-08T06:12:50.465Z,36.83
2018-05-08T06:15:18.897Z,36.80
2018-05-08T06:17:47.294Z,36.09
2018-05-08T06:20:17.082Z,35.81
2018-05-08T06:22:45.573Z,34.72
2018-05-08T06:25:14.004Z,34.10
2018-05-08T06:27:42.467Z,34.13
2018-05-08T06:30:10.992Z,33.66
2018-05-08T06:32:40.074Z,33.46
2018-05-08T06:35:08.485Z,32.45
2018-05-08T06:37:37.919Z,32.40
2018-05-08T06:40:06.400Z,31.95
2018-05-08T06:42:34.891Z,32.22
2018-05-08T06:45:03.179Z,31.58
2018-05-08T06:47:31.564Z,31.05
2018-05-08T06:49:59.903Z,30.25
2018-05-08T06:52:28.196Z,29.75
2018-05-08T06:54:56.513Z,28.75
2018-05-08T06:57:24.667Z,29.01
2018-05-08T06:59:52.840Z,29.37
2018-05-08T07:02:21.074Z,28.09
2018-05-08T07:04:49.189Z,27.64
2018-05-08T07:07:17.559Z,27.28
2018-05-08T07:09:44.919Z,26.64
2018-05-08T07:12:13.356Z,26.12
2018-05-08T07:14:41.771Z,26.06
2018-05-08T07:17:10.176Z,25.21
2018-05-08T07:19:38.539Z,24.93
2018-05-08T07:22:06.956Z,24.21
2018-05-08T07:24:35.379Z,23.36
2018-05-08T07:27:03.695Z,23.04
2018-05-08T07:29:32.113Z,22.92
2018-05-08T07:32:00.492Z,22.56
2018-05-08T07:34:28.812Z,21.34
2018-05-08T07:36:57.268Z,21.71
2018-05-08T07:39:25.583Z,21.37
2018-05-08T07:41:53.930Z,20.40
2018-05-08T07:44:22.147Z,19.99
2018-05-08T07:46:50.358Z,19.56
2018-05-08T07:49:18.523Z,18.96
2018-05-08T07:51:46.728Z,19.33
2018-05-08T07:54:14.963Z,18.81
2018-05-08T07:56:43.140Z,19.35
2018-05-08T07:59:11.800Z,19.21
2018-05-08T08:01:41.232Z,18.81
2018-05-08T08:04:09.677Z,19.53
2018-05-08T08:06:37.934Z,19.56
2018-05-08T08:09:06.195Z,19.31
2018-05-08T08:11:34.739Z,18.70
2018-05-08T08:14:03.014Z,18.67
2018-05-08T08:16:31.552Z,18.37
2018-05-08T08:18:59.815Z,17.52
2018-05-08T08:21:28.043Z,17.40
2018-05-08T08:23:56.335Z,18.33
2018-05-08T08:26:24.535Z,18.04
2018-05-08T08:28:52.730Z,17.92
2018-05-08T08:31:20.962Z,17.91
2018-05-08T08:33:49.151Z,16.98
2018-05-08T08:36:17.371Z,17.17
2018-05-08T08:38:45.714Z,17.07
2018-05-08T08:41:15.100Z,16.92
2018-05-08T08:43:43.271Z,16.37
2018-05-08T08:46:11.479Z,16.69
2018-05-08T08:48:39.620Z,15.63
2018-05-08T08:51:07.805Z,16.46
2018-05-08T08:53:35.947Z,15.74
2018-05-08T08:56:04.118Z,17.17
2018-05-08T08:58:32.259Z,15.84
2018-05-08T09:01:00.415Z,16.25
2018-05-08T09:03:28.555Z,16.62
2018-05-08T09:05:56.922Z,16.44
2018-05-08T09:08:25.139Z,15.85
2018-05-08T09:10:53.321Z,15.48
2018-05-08T09:13:21.463Z,16.30
2018-05-08T09:15:49.586Z,16.91
2018-05-08T09:18:18.483Z,16.85
2018-05-08T09:20:46.663Z,16.86
2018-05-08T09:23:15.083Z,16.08
2018-05-08T09:25:43.427Z,17.37
2018-05-08T09:28:11.735Z,17.06
2018-05-08T09:30:39.996Z,17.78
2018-05-08T09:33:08.483Z,17.58
2018-05-08T09:35:36.627Z,17.29
2018-05-08T09:38:04.776Z,17.40
2018-05-08T09:40:33.119Z,17.95
2018-05-08T09:43:01.428Z,18.49
2018-05-08T09:45:29.826Z,17.94
2018-05-08T09:47:58.250Z,17.77
2018-05-08T09:50:26.621Z,19.43
2018-05-08T09:52:55.071Z,18.86
2018-05-08T09:55:23.859Z,18.79
2018-05-08T09:57:52.290Z,18.80
2018-05-08T10:00:20.723Z,17.96
2018-05-08T10:02:49.004Z,18.00
2018-05-08T10:05:17.382Z,17.60
2018-05-08T10:07:45.663Z,17.80
2018-05-08T10:10:14.148Z,17.99
2018-05-08T10:12:42.516Z,17.89
2018-05-08T10:15:10.708Z,17.42
2018-05-08T10:17:39.117Z,17.90
2018-05-08T10:20:07.487Z,17.39
2018-05-08T10:22:35.747Z,17.29
2018-05-08T10:25:04.159Z,16.94
2018-05-08T10:27:32.587Z,17.17
2018-05-08T10:30:01.007Z,16.67
2018-05-08T10:32:29.363Z,16.81
2018-05-08T10:34:57.658Z,16.99
2018-05-08T10:37:26.048Z,16.93
2018-05-08T10:39:54.835Z,16.97
2018-05-08T10:42:23.271Z,17.42
2018-05-08T10:44:51.679Z,17.48
2018-05-08T10:47:20.569Z,16.87
2018-05-08T10:49:50.611Z,17.59
2018-05-08T10:52:19.075Z,16.84
2018-05-08T10:54:47.432Z,17.24
2018-05-08T10:57:16.144Z,17.18
2018-05-08T10:59:44.436Z,17.00
2018-05-08T11:02:12.782Z,16.58
2018-05-08T11:04:41.034Z,16.36
2018-05-08T11:07:09.391Z,17.57
2018-05-08T11:09:37.696Z,17.10
2018-05-08T11:12:05.952Z,17.58
2018-05-08T11:14:34.500Z,18.21
2018-05-08T11:17:02.826Z,18.25
2018-05-08T11:19:31.269Z,18.47
2018-05-08T11:22:00.117Z,18.51
2018-05-08T11:24:28.500Z,19.63
2018-05-08T11:26:56.916Z,20.32
2018-05-08T11:29:25.788Z,21.01
2018-05-08T11:31:54.187Z,20.92
2018-05-08T11:34:22.615Z,20.92
2018-05-08T11:36:51.088Z,21.53
2018-05-08T11:39:19.625Z,21.99
2018-05-08T11:41:48.060Z,23.24
2018-05-08T11:44:16.490Z,22.93
2018-05-08T11:46:44.919Z,22.72
2018-05-08T11:49:13.347Z,23.40
2018-05-08T11:51:41.714Z,23.69
2018-05-08T11:54:10.967Z,24.16
2018-05-08T11:56:39.447Z,24.36
2018-05-08T11:59:07.899Z,24.86
2018-05-08T12:01:36.343Z,24.59
2018-05-08T12:04:05.774Z,24.06
2018-05-08T12:06:34.216Z,24.59
2018-05-08T12:09:02.916Z,23.72
2018-05-08T12:11:32.383Z,24.63
2018-05-08T12:14:00.804Z,25.03
2018-05-08T12:16:29.251Z,25.64
2018-05-08T12:18:58.743Z,27.29
2018-05-08T12:21:27.139Z,26.14
2018-05-08T12:23:55.649Z,25.77
2018-05-08T12:26:24.083Z,26.52
2018-05-08T12:28:52.505Z,25.99
2018-05-08T12:31:20.900Z,26.47
2018-05-08T12:33:49.247Z,26.69
2018-05-08T12:36:18.721Z,26.45
2018-05-08T12:38:48.088Z,27.26
2018-05-08T12:41:16.497Z,25.82
2018-05-08T12:43:45.899Z,26.41
2018-05-08T12:46:14.315Z,26.96
2018-05-08T12:48:43.760Z,26.62
2018-05-08T12:51:13.240Z,26.74
2018-05-08T12:53:41.668Z,27.58
2018-05-08T12:56:10.059Z,27.22
2018-05-08T12:58:38.580Z,26.79
2018-05-08T13:01:07.056Z,27.26
2018-05-08T13:03:35.803Z,26.30
2018-05-08T13:06:04.176Z,26.57
2018-05-08T13:08:32.584Z,27.36
2018-05-08T13:11:01.110Z,27.08
2018-05-08T13:13:29.646Z,27.58
2018-05-08T13:15:59.351Z,27.87
2018-05-08T13:18:27.759Z,27.00
2018-05-08T13:20:56.212Z,26.72
2018-05-08T13:23:24.649Z,28.06
2018-05-08T13:25:53.088Z,26.52
2018-05-08T13:28:21.523Z,26.61
2018-05-08T13:30:49.997Z,26.80
2018-05-08T13:33:18.428Z,26.72
2018-05-08T13:35:46.823Z,27.11
2018-05-08T13:38:15.180Z,25.97
2018-05-08T13:40:43.604Z,26.24
2018-05-08T13:43:12.079Z,26.24
2018-05-08T13:45:40.513Z,25.93
2018-05-08T13:48:08.970Z,26.32
2018-05-08T13:50:37.349Z,26.85
2018-05-08T13:53:06.759Z,26.09
2018-05-08T13:55:35.200Z,26.04
2018-05-08T13:58:03.641Z,26.21
2018-05-08T14:00:32.119Z,26.84
2018-05-08T14:03:00.585Z,26.13
2018-05-08T14:05:30.115Z,25.58
2018-05-08T14:07:58.844Z,26.38
2018-05-08T14:10:27.208Z,25.69
2018-05-08T14:12:55.600Z,25.53
2018-05-08T14:15:24.039Z,25.72
2018-05-08T14:17:52.416Z,25.67
2018-05-08T14:20:20.942Z,25.82
2018-05-08T14:22:49.315Z,25.70
2018-05-08T14:25:17.936Z,25.35
2018-05-08T14:27:46.407Z,24.66
2018-05-08T14:30:15.963Z,24.73
2018-05-08T14:32:44.411Z,24.94
2018-05-08T14:35:12.834Z,24.89
2018-05-08T14:37:42.237Z,25.27
2018-05-08T14:40:10.631Z,23.75
2018-05-08T14:42:39.776Z,23.82
2018-05-08T14:45:08.247Z,23.60
2018-05-08T14:47:36.777Z,23.25
2018-05-08T14:50:05.220Z,23.23
2018-05-08T14:52:33.762Z,24.46
2018-05-08T14:55:02.188Z,22.78
2018-05-08T14:57:30.579Z,22.63
2018-05-08T14:59:59.065Z,22.37
2018-05-08T15:02:27.783Z,23.16
2018-05-08T15:04:57.231Z,23.51
2018-05-08T15:07:26.776Z,22.42
2018-05-08T15:09:55.205Z,22.33
2018-05-08T15:12:23.647Z,22.20
2018-05-08T15:14:52.177Z,21.91
2018-05-08T15:17:21.488Z,21.90
2018-05-08T15:19:49.920Z,21.87
2018-05-08T15:22:18.327Z,21.32
2018-05-08T15:24:46.791Z,21.03
2018-05-08T15:27:15.261Z,20.88
2018-05-08T15:29:43.680Z,20.85
2018-05-08T15:32:12.133Z,21.02
2018-05-08T15:34:41.649Z,21.85
2018-05-08T15:37:11.631Z,20.64
2018-05-08T15:39:41.046Z,20.97
2018-05-08T15:42:09.405Z,21.17
2018-05-08T15:44:38.205Z,21.34
2018-05-08T15:47:06.624Z,22.17
2018-05-08T15:49:35.065Z,21.24
2018-05-08T15:52:03.543Z,21.54
2018-05-08T15:54:31.924Z,21.69
2018-05-08T15:57:00.331Z,21.18
2018-05-08T15:59:28.792Z,21.24
2018-05-08T16:01:58.232Z,20.76
2018-05-08T16:04:26.597Z,21.35
2018-05-08T16:06:55.084Z,21.58
2018-05-08T16:09:23.500Z,21.86
2018-05-08T16:11:51.904Z,21.76
2018-05-08T16:14:20.328Z,21.71
2018-05-08T16:16:48.728Z,21.55
2018-05-08T16:19:18.227Z,21.66
2018-05-08T16:21:46.667Z,22.08
2018-05-08T16:24:15.084Z,22.30
2018-05-08T16:26:44.991Z,22.22
2018-05-08T16:29:13.399Z,22.43
2018-05-08T16:31:41.893Z,22.68
2018-05-08T16:34:10.292Z,22.74
2018-05-08T16:36:38.748Z,22.54
2018-05-08T16:39:07.223Z,22.09
2018-05-08T16:41:35.640Z,22.42
2018-05-08T16:44:04.055Z,22.27
2018-05-08T16:46:32.484Z,22.71
2018-05-08T16:49:00.930Z,22.14
2018-05-08T16:51:30.729Z,22.45
2018-05-08T16:54:00.314Z,22.46
2018-05-08T16:56:28.703Z,22.30
2018-05-08T16:58:57.207Z,22.53
2018-05-08T17:01:25.656Z,22.31
2018-05-08T17:03:54.136Z,22.81
2018-05-08T17:06:22.543Z,22.51
2018-05-08T17:08:50.928Z,22.19
2018-05-08T17:11:19.384Z,22.26
2018-05-08T17:13:47.791Z,22.65
2018-05-08T17:16:16.212Z,22.76
2018-05-08T17:18:44.668Z,22.65
2018-05-08T17:21:15.744Z,23.06
2018-05-08T17:23:44.170Z,22.02
2018-05-08T17:26:12.588Z,21.76
2018-05-08T17:28:41.041Z,21.28
2018-05-08T17:31:09.412Z,21.62
2018-05-08T17:33:37.890Z,22.04
2018-05-08T17:36:06.412Z,22.44
2018-05-08T17:38:36.102Z,22.60
2018-05-08T17:41:04.661Z,22.74
2018-05-08T17:43:34.368Z,22.43
2018-05-08T17:46:02.806Z,22.25
2018-05-08T17:48:31.593Z,22.36
2018-05-08T17:51:01.563Z,22.25
2018-05-08T17:53:29.987Z,22.73
2018-05-08T17:55:58.431Z,23.00
2018-05-08T17:58:26.814Z,22.58
2018-05-08T18:00:55.274Z,23.09
2018-05-08T18:03:23.704Z,23.08
2018-05-08T18:05:52.169Z,22.92
2018-05-08T18:08:20.613Z,22.97
2018-05-08T18:10:49.109Z,22.80
2018-05-08T18:13:19.415Z,22.70
2018-05-08T18:15:49.929Z,22.95
2018-05-08T18:18:20.321Z,22.51
2018-05-08T18:20:48.782Z,22.79
2018-05-08T18:23:20.467Z,23.16
2018-05-08T18:25:48.960Z,23.15
2018-05-08T18:28:19.522Z,23.38
2018-05-08T18:30:49.904Z,23.64
2018-05-08T18:33:18.421Z,23.38
2018-05-08T18:35:46.888Z,23.20
2018-05-08T18:38:19.114Z,23.20
2018-05-08T18:40:47.540Z,23.29
2018-05-08T18:43:15.978Z,23.28
2018-05-08T18:45:44.388Z,23.53
2018-05-08T18:48:14.820Z,23.51
2018-05-08T18:50:43.306Z,23.86
2018-05-08T18:53:12.064Z,23.61
2018-05-08T18:55:40.514Z,23.62
2018-05-08T18:58:10.506Z,23.44
2018-05-08T19:00:45.035Z,23.44
2018-05-08T19:03:14.972Z,23.84
2018-05-08T19:05:43.422Z,23.60
2018-05-08T19:08:13.794Z,23.91
2018-05-08T19:10:42.256Z,24.03
2018-05-08T19:13:14.313Z,24.23
2018-05-08T19:15:50.625Z,24.06
2018-05-08T19:18:25.160Z,24.59
2018-05-08T19:20:53.667Z,24.66
2018-05-08T19:23:22.454Z,24.72
2018-05-08T19:25:50.904Z,24.94
2018-05-08T19:28:27.379Z,25.44
2018-05-08T19:30:55.847Z,25.15
2018-05-08T19:33:24.296Z,25.40
2018-05-08T19:35:58.845Z,25.92
2018-05-08T19:38:27.225Z,26.30
2018-05-08T19:40:57.008Z,27.02
2018-05-08T19:43:25.454Z,27.06
2018-05-08T19:45:55.477Z,26.14
2018-05-08T19:48:25.483Z,26.84
2018-05-08T19:50:53.897Z,27.50
2018-05-08T19:53:22.313Z,27.83
2018-05-08T19:55:50.734Z,27.37
2018-05-08T19:58:21.486Z,27.80
2018-05-08T20:00:49.879Z,28.43
2018-05-08T20:03:24.035Z,28.55
2018-05-08T20:05:56.461Z,28.10
2018-05-08T20:08:24.881Z,28.50
2018-05-08T20:10:53.421Z,28.89
2018-05-08T20:13:21.847Z,29.41
2018-05-08T20:15:51.770Z,30.46
2018-05-08T20:18:22.705Z,30.80
2018-05-08T20:20:51.123Z,30.43
2018-05-08T20:23:19.587Z,30.96
2018-05-08T20:25:48.027Z,31.10
2018-05-08T20:28:16.500Z,32.25
2018-05-08T20:30:45.037Z,31.89
2018-05-08T20:33:13.470Z,32.77
2018-05-08T20:35:43.474Z,31.84
2018-05-08T20:38:16.333Z,31.77
2018-05-08T20:40:44.777Z,31.07
2018-05-08T20:43:13.191Z,31.54
2018-05-08T20:45:41.655Z,31.39
2018-05-08T20:48:10.135Z,32.46
2018-05-08T20:50:38.580Z,32.01
2018-05-08T20:53:08.509Z,32.59
2018-05-08T20:55:38.923Z,32.93
2018-05-08T20:58:08.887Z,32.81
2018-05-08T21:00:37.339Z,32.93
2018-05-08T21:03:05.720Z,34.07
2018-05-08T21:05:34.075Z,34.30
2018-05-08T21:08:02.539Z,35.03
2018-05-08T21:10:30.912Z,35.36
2018-05-08T21:12:59.384Z,35.06
2018-05-08T21:15:27.748Z,35.46
2018-05-08T21:17:56.212Z,35.24
2018-05-08T21:20:26.184Z,35.33
2018-05-08T21:22:56.618Z,35.17
2018-05-08T21:25:27.191Z,35.71
2018-05-08T21:28:01.722Z,35.44
2018-05-08T21:30:38.637Z,35.71
2018-05-08T21:33:08.611Z,35.98
2018-05-08T21:35:39.291Z,36.71
2018-05-08T21:38:07.710Z,36.93
2018-05-08T21:40:36.198Z,36.91
2018-05-08T21:43:06.963Z,36.64
2018-05-08T21:45:35.390Z,37.02
2018-05-08T21:48:03.752Z,36.30
2018-05-08T21:50:32.215Z,37.29
2018-05-08T21:53:02.767Z,37.24
2018-05-08T21:55:31.184Z,37.18
2018-05-08T21:58:01.687Z,37.87
2018-05-08T22:00:30.184Z,37.60
2018-05-08T22:03:00.557Z,37.87
2018-05-08T22:05:28.991Z,37.48
2018-05-08T22:07:57.400Z,37.56
2018-05-08T22:10:25.840Z,37.97
2018-05-08T22:12:54.208Z,38.34
2018-05-08T22:15:24.647Z,38.39
2018-05-08T22:17:54.435Z,38.53
2018-05-08T22:20:22.883Z,38.91
2018-05-08T22:22:51.275Z,38.90
2018-05-08T22:25:19.675Z,39.14
2018-05-08T22:27:48.059Z,39.74
2018-05-08T22:30:16.540Z,39.88
2018-05-08T22:32:44.976Z,40.24
2018-05-08T22:35:13.482Z,40.13
2018-05-08T22:37:41.923Z,40.18
2018-05-08T22:40:10.267Z,40.51
2018-05-08T22:42:38.744Z,40.58
2018-05-08T22:45:07.153Z,40.73
2018-05-08T22:47:35.589Z,40.24
2018-05-08T22:50:04.027Z,41.12
2018-05-08T22:52:32.465Z,40.86
2018-05-08T22:55:00.907Z,40.72
2018-05-08T22:57:29.283Z,41.03
2018-05-08T22:59:57.684Z,41.79
2018-05-08T23:02:26.131Z,41.61
2018-05-08T23:04:54.576Z,41.81
2018-05-08T23:07:23.020Z,42.09
2018-05-08T23:09:51.480Z,42.29
2018-05-08T23:12:21.633Z,42.25
2018-05-08T23:14:50.036Z,42.68
2018-05-08T23:17:19.995Z,42.84
2018-05-08T23:19:48.526Z,42.26
2018-05-08T23:22:16.839Z,42.63
2018-05-08T23:24:45.281Z,43.19
2018-05-08T23:27:13.726Z,43.57
2018-05-08T23:29:42.123Z,43.80
2018-05-08T23:32:10.492Z,44.38
2018-05-08T23:34:38.928Z,44.40
2018-05-08T23:37:07.319Z,44.74
2018-05-08T23:39:35.759Z,44.86
2018-05-08T23:42:04.152Z,45.11
2018-05-08T23:44:32.573Z,45.40
2018-05-08T23:47:01.046Z,45.42
2018-05-08T23:49:29.434Z,45.49
2018-05-08T23:51:57.828Z,45.40
2018-05-08T23:54:26.262Z,45.29
2018-05-08T23:56:54.711Z,45.28
2018-05-08T23:59:23.328Z,45.15
